Timeline UpdatesTrip UpdatesNews PostsPvt PostsTravel TipsAdmin PostsConv PostsFollowed PostsChat RequestsBlog PostsPNR Posts

Disclaimer
Search
 
 
Sat Aug 2, 2014 04:01:57 ISTHomeTrainsΣChainsAtlasPNRForumGalleryNewsFAQTripsMembersLoginFeedback
No Recent News for this Train
Other Trains in the News **new
Latest...
Temporary Stoppage at Mahadevsal Station every Sunday and Monday from 23.07.2013 to 21.08.2013 during Shravani Melaa
Tue Jul 23, 2013 (10:09AM)
⇐ Return Journey: Train# 18029

18030/Shalimar-Mumbai LTT [Kurla] Express

Jul 01 2013 (4:41PM)
Change Departure Station:
Change Arrival Station:
Post a Train Travel TipPost a Train Travel Tip **new
Post a Comment/Question/Picture/VideoPost a Comment/Question/Picture/Video
Pantry/Catering
✕ NO Pantry Car
✓ Catering Avbl
RSA - Rake Sharing
Rake/Coach Composition
LOCO-HCPV-HCPV-SLR-GS-S13-S12-S11-S10-S9-S8-S7-S6-S5-S4-S3-S2-S1-B1-A1-GS-SLR-HCPV-HCPV
Loco
WAP-4 of Howrah shed (ER)
News    PNR    Forum    Time-Table    Availability    Fare Chart    Map    Arr/Dep History    Trips    Gallery    ΣChains    X/O    Timeline    
Travel Time: 17h 16m    40 halts    Distance: 894 km    Avg Speed: 51 km/hr
Type: Mail/Express
Zone: SER/South Eastern
Departs @ 15:00 (Avg 2m late)
Platform# 1
SMTWTFS
Kolkata Shalimar/SHM 
Arrives @ 08:16 +1 night (Avg 34m late)
Platform# ???
SMTWTFS
Raj Nandgaon/RJN 

40 halts. 139 intermediate Stations between Kolkata Shalimar and Raj Nandgaon

Show ALL intermediate Stations  Show Old Time-Table

#CodeStation NameX/OArrivesAvgDepartsAvgHaltPFDay#KmSpeedElevZoneAddress
1SHM»Kolkata Shalimar (2)»  -15:00+2110.0265mSERSHIBPUR . DIST- Howrah, West Bengal
2SRCKolkata Santragachi Junction (6)  15:11+615:12+71m114.7627mSERDist: Howrah - 711104, West Bengal
3ULBUluberia (6)O  15:36+1115:37+131m1129.54910mSERdist - howrah, West Bengal
4MCAMecheda (6)X  16:09+916:10+211m--155.52610mSERdist - purba Medinipur, West Bengal
5PKUPanskura Junction (6)X  16:39+816:40+211m--167.9489mSERPanskura, West Bengal
6KGPKharagpur Junction (10)X  17:35+717:50+615m--1112.36942mSERKharagpur, West Bengal
7JGMJhargram (4)X  18:24+518:25+61m--1151.48082mSERJhargram, West Bengal
8CKUChakulia (4)  18:47+618:48+71m--1180.680126mSERChakulia, Jharkhand
9GTSGhatsila (3)  19:11+719:12+81m--1211.255103mSEREast Singhbhum, Jharkhand
10GUDGaludih (4)  19:23+319:24+41m--1221.241120mSEREast Singhbhum, Jharkhand
11RHERakha Mines (2)  19:34+319:35+41m--1228.139118mSEREast Singhbhum, Jharkhand
12TATATatanagar Junction (5)X  20:05+720:10+95m--1247.462164mSER91-657-2423026, Jharkhand
13SINISini Junction (3)  20:36+1420:37+151m--1274.357182mSERNational Highway 33, Jharkhand
14RKSNRajkharsawan Junction (3)  20:53+1420:54+151m--1289.671189mSERSaraikela Kharswan District, Jharkhand
15CKPChakradharpur (3)X  21:11+1921:16+195m11309.684235mSERChakradharpur (West Singhbhum), Jharkhand
16SWRSonuaX  21:31+2321:32+241m--1330.664287mSERSonua, Jharkhand
17GOLGoilkera (2)X  21:44+2321:45+251m--1343.455333mSERGoilkera, Jharkhand
18MOUManoharpur  22:15+2122:16+221m--1370.977228mSERManoharpur, Jharkhand
19BNDMBondamunda (2)  22:42+2922:43+271m--1404.220213mSERRourkela, Odisha
20ROURourkela Junction (5)X  23:03+1923:13+2010m21410.766198mSERRourkela, Odisha
21GPRaj Gangpur (3)  23:40+2223:41+231m11440.574237mSERRaj Ganpur, Odisha
22BMBBamra (3)  00:09+2200:10+231m--2475.155259mSERBamra PH : 06642-229268, Odisha
23JSGJharsuguda Junction (5)X  00:50+1800:55+225m12511.678236mSERJharsuguda, Odisha
24BRJNBrajrajnagarX  01:04+2601:05+271m--2523.359212mSECRBrajrajnagar, Odisha
25BPHBelpahar  01:14+2801:15+291m--2532.285235mSECRBelpahar, Odisha
26RIGRaigarh (3)  01:51+3401:56+375m--2583.389220mSECRRaigarh, Chhattisgarh
27KHSKharsia  02:19+5002:20+511m--2617.271259mSECRNational Highway 200, Chhattisgarh
28SKTSakti (4)  02:33+5102:34+521m--2632.676237mSECRJanjgir-Champa, Chhattisgarh
29CPHChampa Junction (3)X  02:58+5503:03+545m--2663.065264mSECRNational Highway 200 (07819-245767), Chhattisgarh
30NIANailaX  03:13+5403:14+551m--2673.969273mSECRJanjgir, Chhattisgarh
31AKTAkaltara (4)  03:27+5403:28+551m--2688.829284mSECRDist. Janjgir Champa, Chhattisgarh
32BSPBilaspur Junction (8)  04:25+2304:45+3020m32716.049271mSECRBilaspur, Chhattisgarh
33BYLBelha  05:04+2805:05+291m--2731.677269mSECRCollege Road, Chhattisgarh
34BYTBhatapara (4)  05:29+3105:30+321m--2762.282270mSECRBanjari Road, Chhattisgarh
35TLDTilda (3)  05:49+3305:50+341m12788.351291mSECRBanjari Rd, Chhattisgarh
36RRaipur Junction (6)X  06:35+2906:45+3110m12826.570297mSECRRaipur, Chhattisgarh
37DBECDevbaloda CharodaX  07:02-07:03-1m--2846.435310mSECRBhilai, Chhattisgarh
38BIABhilai (2)X  07:09+3207:10+321m--2849.840309mSECRBhilai, Chhattisgarh
39BPHBBhilai Power House (3)X  07:17+507:18+51m--2854.524312mSECRBhilai, Chhattisgarh
40BQRBhilai Nagar (2)X  07:29+2707:30+271m--2858.918298mSECRBhilai, Chhattisgarh
41DURGDurg Junction (6)X  07:45+2507:55+2510m--2863.487299mSECRPh: 91-788-2322059, Chhattisgarh
42RJN•Raj Nandgaon (3)•  08:16+3408:21+355m--2893.882313mSECRRajnandgaon, Chhattisgarh
43DGGDongargarh (2)  08:44+4108:45+451m--2925.460353mSECRDongargarh, Chhattisgarh
44SKSSalekasa (2)  09:21+4909:22+511m--2961.174312mSECRRajnandgaon, Chhattisgarh
45AGNAmgaon (2)  09:34+5109:35+531m--2975.946317mSECRGondia, Maharashtra
46GGondia Junction (7)X  10:05+4610:15+5110m--2998.788316mSECRGondia 441601, Maharashtra
47TROTirora (3)X  10:35+5610:36+571m--21028.068282mSECRDist Gondiya, Maharashtra
48TMRTumsar Road (3)X  10:54+5410:55+551m--21048.363267mSECRBhandara, Maharashtra
49BRDBhandara Road (2)  11:12+5411:13+551m--21066.376266mSECRState Highway 252, Maharashtra
50KPKamptee (3)X  11:51+5411:52+551m--21114.231290mSECRMH 441001, Maharashtra
51ITRItwari (3)O  12:12+5212:13+1:021m--21124.74306mSECRNagpur, Maharashtra
52NGPNagpur Junction (8)X  13:15+2313:40+2225m721128.523314mCRNagpur 440001, Maharashtra
53AJNIAjni (3)  13:48+2913:49+291m--21131.582310mCRNagpur 440003, Maharashtra
54SNISindi (2)  14:21+3314:22+351m--21175.457258mCRWardha, Maharashtra
55SEGMSewagram Junction (5)X  14:53+2814:54+291m--21204.720279mCRWardha, Maharashtra
56WRWardha Junction  15:02+2715:05+263m221207.384289mCRWardha 442001, Maharashtra
57PLOPulgaon Junction (3)  15:26+2915:27+301m221236.970273mCRPulgaon, Maharashtra
58DMNDhamangaon (2)  15:44+3015:45+311m--21256.862300mCRDhamangaon, Maharashtra
59CNDChandur (2)X  16:01+3116:02+321m--21273.530331mCRAmravati Distt, Maharashtra
60BDBadnera Junction (4)  17:00+1517:05+175m121302.390335mCRBadnera (Amravati) 444701, Maharashtra
61MZRMurtizapur (3)  17:33+2417:35+242m--21344.074303mCRMurtajapur, Maharashtra
62AKAkola Junction (7)  18:05+2318:10+235m121381.286284mCRAkola-444001, Maharashtra
63PSParas (2)  18:24+2618:25+261m--21401.274282mCRAkola, Maharashtra
64SEGShegaon (2)  18:39+2818:40+291m--21418.482281mCRShegaon 444203, Maharashtra
65JMJalamb Junction (3)X  18:49+3118:50+321m--21430.882259mCRJalamb, Maharashtra
66NNNanduraX  18:59+3419:00+371m--21443.070267mCRNandura, Maharashtra
67MKUMalkapur (2)X  19:24+3419:25+351m121470.962252mCRMalkapur, Maharashtra
68BDWDBodwadX  19:44+3619:45+371m--21490.540294mCRBodwad, Maharashtra
69BSLBhusaval Junction (8)X  20:30+2720:45+2815m521520.860208mCRBhusaval 425201, Maharashtra
70JLJalgaon Junction (4)  21:09+3321:10+361m221544.984213mCRJalgaon 425001, Maharashtra
71PCPachora Junction (4)X  21:44+3921:45+401m--21592.693264mCRPachora 424201, Maharashtra
72CSNChalisgaon Junction (3)  22:14+4722:15+491m--21637.487352mCRChalisgaon 424101, Maharashtra
73NGNNandgaon (3)  22:44+5222:45+531m--21679.656476mCRNandgaon, Maharashtra
74MMRManmad Junction (6)  23:12+5223:15+563m321705.077580mCRManmad 423104, Maharashtra
75LSLasalgaon (3)X  23:34+5823:35+591m--21729.566592mCRLasalgaon, Maharashtra
76NKNasik Road (3)X  00:19+5200:20+541m331777.738563mCRNashik 422101, Maharashtra
77DVLDevlali (3)X  00:29+5500:30+571m231783.534561mCRDist. Nashik 422401, Maharashtra
78IGPIgatpuri (4)XO  01:49+2501:50+341m--31828.418589mCRIgatpuri 422403, Maharashtra
79KSRAKasara (4)X  02:39+2902:40+311m--31842.858290mCRDist. Thane 421602, Maharashtra
80KYNKalyan Junction (8)  03:50+2803:55+425m631910.28710mCRKalyan 421301, Maharashtra
81TNAThane (10)  04:09+3004:10+301m831930.42510mCRThane, Maharashtra
82LTTMumbai Lokmanya Tilak Terminus (5)  04:50+30-331946.9-7mCRMumbai, Maharashtra
Scroll to Top
Scroll to Bottom